createdAt,value
2023-05-11T00:00:31.381Z,5.28
2023-05-11T00:01:33.758Z,4.95
2023-05-11T00:02:36.782Z,5.15
2023-05-11T00:03:38.686Z,5.22
2023-05-11T00:04:41.698Z,5.93
2023-05-11T00:05:47.702Z,5.28
2023-05-11T00:06:50.496Z,4.63
2023-05-11T00:07:52.364Z,5.18
2023-05-11T00:08:55.070Z,5.55
2023-05-11T00:09:56.894Z,4.95
2023-05-11T00:11:00.821Z,5.25
2023-05-11T00:12:04.242Z,5.10
2023-05-11T00:13:07.063Z,5.88
2023-05-11T00:14:08.822Z,5.13
2023-05-11T00:15:12.024Z,4.93
2023-05-11T00:16:14.689Z,5.68
2023-05-11T00:17:18.859Z,4.97
2023-05-11T00:18:21.278Z,4.97
2023-05-11T00:19:24.041Z,5.82
2023-05-11T00:20:25.904Z,4.53
2023-05-11T00:21:28.618Z,4.82
2023-05-11T00:22:30.459Z,5.10
2023-05-11T00:23:33.173Z,5.97
2023-05-11T00:24:34.924Z,5.20
2023-05-11T00:25:39.125Z,5.47
2023-05-11T00:26:40.874Z,4.97
2023-05-11T00:27:46.234Z,5.35
2023-05-11T00:28:48.335Z,5.28
2023-05-11T00:29:51.329Z,5.80
2023-05-11T00:30:56.095Z,5.50
2023-05-11T00:31:58.918Z,5.50
2023-05-11T00:33:00.819Z,5.60
2023-05-11T00:34:03.558Z,5.40
2023-05-11T00:35:06.533Z,5.65
2023-05-11T00:36:09.569Z,5.50
2023-05-11T00:37:11.333Z,5.53
2023-05-11T00:38:14.146Z,5.90
2023-05-11T00:39:16.154Z,6.15
2023-05-11T00:40:19.445Z,6.18
2023-05-11T00:41:21.686Z,5.53
2023-05-11T00:42:24.580Z,6.40
2023-05-11T00:43:27.791Z,6.07
2023-05-11T00:44:30.569Z,6.32
2023-05-11T00:45:32.530Z,6.15
2023-05-11T00:46:35.505Z,6.82
2023-05-11T00:47:37.545Z,7.00
2023-05-11T00:48:40.331Z,8.15
2023-05-11T00:49:42.342Z,6.95
2023-05-11T00:50:45.302Z,7.65
2023-05-11T00:51:47.171Z,7.88
2023-05-11T00:52:49.924Z,8.13
2023-05-11T00:53:52.035Z,8.40
2023-05-11T00:54:55.584Z,7.82
2023-05-11T00:55:57.383Z,8.70
2023-05-11T00:57:00.313Z,7.68
2023-05-11T00:58:05.492Z,8.27
2023-05-11T00:59:10.140Z,7.50
2023-05-11T01:00:13.093Z,7.82
2023-05-11T01:01:17.993Z,7.60
2023-05-11T01:02:19.982Z,6.75
2023-05-11T01:03:22.974Z,7.53
2023-05-11T01:04:25.162Z,7.57
2023-05-11T01:05:33.198Z,7.55
2023-05-11T01:06:44.570Z,8.10
2023-05-11T01:07:52.134Z,7.68
2023-05-11T01:08:58.168Z,7.68
2023-05-11T01:10:05.157Z,8.23
2023-05-11T01:11:14.499Z,5.80
2023-05-11T01:12:26.835Z,8.50
2023-05-11T01:13:32.197Z,7.03
2023-05-11T01:14:41.870Z,7.47
2023-05-11T01:15:47.020Z,7.22
2023-05-11T01:16:57.278Z,6.97
2023-05-11T01:18:02.002Z,6.63
2023-05-11T01:19:09.753Z,5.72
2023-05-11T01:20:17.405Z,6.70
2023-05-11T01:21:20.578Z,7.22
2023-05-11T01:22:31.298Z,7.53
2023-05-11T01:24:05.899Z,7.63
2023-05-11T01:25:18.123Z,7.53
2023-05-11T01:26:36.046Z,6.97
2023-05-11T01:27:55.126Z,6.95
2023-05-11T01:29:30.063Z,6.75
2023-05-11T01:30:37.594Z,6.82
2023-05-11T01:31:41.357Z,8.02
2023-05-11T01:32:45.688Z,7.53
2023-05-11T01:33:49.998Z,6.68
2023-05-11T01:34:56.869Z,7.85
2023-05-11T01:36:03.824Z,6.72
2023-05-11T01:37:11.972Z,6.97
2023-05-11T01:38:14.693Z,7.00
2023-05-11T01:39:18.940Z,6.32
2023-05-11T01:40:24.038Z,6.80
2023-05-11T01:41:27.590Z,6.82
2023-05-11T01:42:32.938Z,6.65
2023-05-11T01:43:36.477Z,7.60
2023-05-11T01:44:41.929Z,7.30
2023-05-11T01:47:31.533Z,5.55
2023-05-11T01:48:39.581Z,6.10
2023-05-11T01:49:43.868Z,7.70
2023-05-11T01:50:46.314Z,6.93
2023-05-11T01:51:51.386Z,6.53
2023-05-11T01:52:53.641Z,6.95
2023-05-11T01:53:57.386Z,6.90
2023-05-11T01:55:00.218Z,6.07
2023-05-11T01:56:03.679Z,6.68
2023-05-11T01:57:06.734Z,6.40
2023-05-11T01:58:11.573Z,6.32
2023-05-11T01:59:14.502Z,6.38
2023-05-11T02:00:20.698Z,6.97
2023-05-11T02:01:24.326Z,6.03
2023-05-11T02:02:28.801Z,6.70
2023-05-11T02:03:37.019Z,6.35
2023-05-11T02:04:42.666Z,5.95
2023-05-11T02:05:47.046Z,6.75
2023-05-11T02:06:52.656Z,6.30
2023-05-11T02:07:56.661Z,5.95
2023-05-11T02:09:00.422Z,7.05
2023-05-11T02:10:02.524Z,6.72
2023-05-11T02:11:07.818Z,7.72
2023-05-11T02:12:10.906Z,7.28
2023-05-11T03:47:54.834Z,4.75
2023-05-11T03:48:56.810Z,5.60
2023-05-11T03:50:05.140Z,5.45
2023-05-11T03:51:07.210Z,5.72
2023-05-11T03:52:11.726Z,6.40
2023-05-11T03:53:14.628Z,5.72
2023-05-11T03:54:19.254Z,6.85
2023-05-11T03:55:21.521Z,6.05
2023-05-11T03:56:24.534Z,7.32
2023-05-11T03:57:30.409Z,7.03
2023-05-11T03:58:33.420Z,6.00
2023-05-11T03:59:35.268Z,6.90
2023-05-11T04:00:41.674Z,5.85
2023-05-11T04:01:44.029Z,6.68
2023-05-11T04:02:47.004Z,5.07
2023-05-11T04:03:52.890Z,4.43
2023-05-11T04:04:55.933Z,4.45
2023-05-11T04:05:58.125Z,4.80
2023-05-11T04:07:01.214Z,4.93
2023-05-11T04:08:03.252Z,4.15
2023-05-11T04:09:06.175Z,4.63
2023-05-11T04:10:08.869Z,4.75
2023-05-11T04:11:11.988Z,4.57
2023-05-11T04:12:13.808Z,4.85
2023-05-11T04:13:18.659Z,4.40
2023-05-11T04:14:20.669Z,3.90
2023-05-11T04:15:23.903Z,4.13
2023-05-11T04:16:25.913Z,4.10
2023-05-11T04:17:28.737Z,4.55
2023-05-11T04:18:30.708Z,3.88
2023-05-11T04:19:34.905Z,4.68
2023-05-11T04:20:36.719Z,4.00
2023-05-11T04:21:39.577Z,4.15
2023-05-11T04:22:41.495Z,3.85
2023-05-11T04:23:44.236Z,4.07
2023-05-11T04:24:46.023Z,4.28
2023-05-11T04:25:53.447Z,4.22
2023-05-11T04:26:58.362Z,4.40
2023-05-11T04:28:01.113Z,3.88
2023-05-11T04:29:03.699Z,4.53
2023-05-11T04:30:07.772Z,4.40
2023-05-11T04:31:10.480Z,3.88
2023-05-11T04:32:13.739Z,3.50
2023-05-11T04:33:15.783Z,4.30
2023-05-11T04:34:19.071Z,4.07
2023-05-11T04:35:23.558Z,3.97
2023-05-11T04:36:26.286Z,4.05
2023-05-11T04:37:28.351Z,4.25
2023-05-11T04:38:31.295Z,4.32
2023-05-11T04:39:33.257Z,4.00
2023-05-11T04:40:37.276Z,4.15
2023-05-11T04:41:39.331Z,4.60
2023-05-11T04:42:43.678Z,4.18
2023-05-11T04:43:50.429Z,3.88
2023-05-11T04:44:54.268Z,4.47
2023-05-11T04:45:56.827Z,3.90
2023-05-11T04:47:02.701Z,4.13
2023-05-11T04:48:06.494Z,4.85
2023-05-11T04:49:09.520Z,4.68
2023-05-11T04:50:13.474Z,4.60
2023-05-11T04:51:17.767Z,4.40
2023-05-11T04:52:20.283Z,5.07
2023-05-11T04:53:25.396Z,4.70
2023-05-11T04:54:27.488Z,4.63
2023-05-11T04:55:30.943Z,4.63
2023-05-11T04:56:34.091Z,3.92
2023-05-11T04:57:38.700Z,4.40
2023-05-11T04:58:40.992Z,4.72
2023-05-11T04:59:44.970Z,4.85
2023-05-11T05:00:46.952Z,4.47
2023-05-11T05:01:49.812Z,4.10
2023-05-11T05:02:51.890Z,4.47
2023-05-11T05:03:54.807Z,4.47
2023-05-11T05:04:56.669Z,5.10
2023-05-11T05:05:59.486Z,4.80
2023-05-11T05:07:02.734Z,4.70
2023-05-11T05:08:05.582Z,4.55
2023-05-11T05:09:07.361Z,4.80
2023-05-11T05:10:12.523Z,4.60
2023-05-11T05:11:14.418Z,4.85
2023-05-11T05:12:17.683Z,4.88
2023-05-11T05:13:19.609Z,4.38
2023-05-11T05:14:22.408Z,4.93
2023-05-11T05:15:24.493Z,4.82
2023-05-11T05:16:27.433Z,4.88
2023-05-11T05:17:29.611Z,4.70
2023-05-11T05:18:32.752Z,4.50
2023-05-11T05:19:36.478Z,4.10
2023-05-11T05:20:39.701Z,4.38
2023-05-11T05:21:41.589Z,4.15
2023-05-11T05:22:45.767Z,4.57
2023-05-11T05:23:48.543Z,5.00
2023-05-11T05:24:50.515Z,4.13
2023-05-11T05:25:53.458Z,3.60
2023-05-11T05:26:55.369Z,3.67
2023-05-11T05:27:59.261Z,4.00
2023-05-11T05:29:01.577Z,4.20
2023-05-11T05:30:05.504Z,4.30
2023-05-11T05:31:07.419Z,4.35
2023-05-11T05:32:10.310Z,4.45
2023-05-11T05:33:13.563Z,3.85
2023-05-11T05:34:16.581Z,3.83
2023-05-11T05:35:20.086Z,3.90
2023-05-11T05:36:22.685Z,4.00
2023-05-11T05:37:25.403Z,4.03
2023-05-11T05:38:29.876Z,6.07
2023-05-11T05:39:32.774Z,4.10
2023-05-11T05:40:37.484Z,4.53
2023-05-11T05:41:43.089Z,3.95
2023-05-11T05:42:46.061Z,4.35
2023-05-11T05:43:51.566Z,4.05
2023-05-11T05:44:53.402Z,4.03
2023-05-11T05:45:56.996Z,4.13
2023-05-11T05:47:00.510Z,4.45
2023-05-11T05:48:09.516Z,3.28
2023-05-11T05:49:11.494Z,3.67
2023-05-11T05:50:14.419Z,3.85
2023-05-11T05:51:17.818Z,4.63
2023-05-11T05:52:20.628Z,4.45
2023-05-11T05:53:24.772Z,3.90
2023-05-11T05:54:28.003Z,3.95
2023-05-11T05:55:32.418Z,4.05
2023-05-11T05:56:37.005Z,4.23
2023-05-11T05:57:42.015Z,4.15
2023-05-11T05:58:44.961Z,4.03
2023-05-11T05:59:48.915Z,4.00
2023-05-11T06:00:53.545Z,4.23
2023-05-11T06:01:56.307Z,4.10
2023-05-11T06:02:59.469Z,4.10
2023-05-11T06:04:03.781Z,3.83
2023-05-11T06:05:07.911Z,4.17
2023-05-11T06:06:10.803Z,3.97
2023-05-11T06:07:14.114Z,4.57
2023-05-11T06:08:16.919Z,4.53
2023-05-11T06:09:18.692Z,4.23
2023-05-11T06:10:22.859Z,4.17
2023-05-11T06:11:24.660Z,4.00
2023-05-11T06:12:27.913Z,4.30
2023-05-11T06:13:32.379Z,4.30
2023-05-11T06:14:35.048Z,3.73
2023-05-11T06:15:39.116Z,4.10
2023-05-11T06:16:48.750Z,3.87
2023-05-11T06:17:50.707Z,3.80
2023-05-11T06:18:53.587Z,4.30
2023-05-11T06:19:56.864Z,4.30
2023-05-11T06:21:02.239Z,4.73
2023-05-11T06:22:07.869Z,3.83
2023-05-11T06:23:11.787Z,4.20
2023-05-11T06:24:15.620Z,4.33
2023-05-11T06:25:20.445Z,4.20
2023-05-11T06:26:25.325Z,4.10
2023-05-11T06:27:29.082Z,4.90
2023-05-11T06:28:33.535Z,4.20
2023-05-11T06:29:40.840Z,3.93
2023-05-11T06:30:42.652Z,3.87
2023-05-11T06:31:46.026Z,4.20
2023-05-11T06:32:47.972Z,3.83
2023-05-11T06:33:53.284Z,3.73
2023-05-11T06:35:01.342Z,4.77
2023-05-11T06:36:08.426Z,4.20
2023-05-11T06:37:11.228Z,4.53
2023-05-11T06:38:14.020Z,4.97
2023-05-11T06:39:16.350Z,5.40
2023-05-11T06:40:19.619Z,4.40
2023-05-11T06:41:21.611Z,3.90
2023-05-11T06:42:26.028Z,4.17
2023-05-11T06:43:38.809Z,4.77
2023-05-11T06:44:50.167Z,4.70
2023-05-11T06:45:52.241Z,3.73
2023-05-11T06:46:56.245Z,3.70
2023-05-11T06:47:59.184Z,4.23
2023-05-11T06:49:01.223Z,4.37
2023-05-11T06:50:04.212Z,4.17
2023-05-11T06:51:06.096Z,3.97
2023-05-11T06:52:09.162Z,4.50
2023-05-11T06:53:11.340Z,4.53
2023-05-11T06:54:14.156Z,4.23
2023-05-11T06:55:16.090Z,3.97
2023-05-11T06:56:19.484Z,3.67
2023-05-11T06:57:22.436Z,3.97
2023-05-11T06:58:26.889Z,3.80
2023-05-11T06:59:28.799Z,3.93
2023-05-11T07:00:31.567Z,3.63
2023-05-11T07:01:33.498Z,3.73
2023-05-11T07:02:36.266Z,3.70
2023-05-11T07:03:38.108Z,3.63
2023-05-11T07:04:41.249Z,4.03
2023-05-11T07:05:43.250Z,4.30
2023-05-11T07:06:46.457Z,3.90
2023-05-11T07:07:48.317Z,3.87
2023-05-11T07:08:51.135Z,3.90
2023-05-11T07:09:52.986Z,4.03
2023-05-11T07:10:56.104Z,4.23
2023-05-11T07:11:58.873Z,4.30
2023-05-11T07:13:00.642Z,4.37
2023-05-11T07:14:04.867Z,4.13
2023-05-11T07:15:08.785Z,3.90
2023-05-11T07:16:11.643Z,3.40
2023-05-11T07:17:13.560Z,3.93
2023-05-11T07:18:16.955Z,3.60
2023-05-11T07:19:18.990Z,3.60
2023-05-11T07:20:21.852Z,3.97
2023-05-11T07:21:23.680Z,3.30
2023-05-11T07:22:26.504Z,3.30
2023-05-11T07:23:28.972Z,3.47
2023-05-11T07:24:32.090Z,4.00
2023-05-11T07:25:34.126Z,3.57
2023-05-11T07:26:36.943Z,3.47
2023-05-11T07:27:38.727Z,3.87
2023-05-11T07:28:41.564Z,4.10
2023-05-11T07:29:45.995Z,3.97
2023-05-11T07:30:47.765Z,3.43
2023-05-11T07:31:50.600Z,3.77
2023-05-11T07:32:52.507Z,3.20
2023-05-11T07:33:55.303Z,4.03
2023-05-11T07:34:57.355Z,3.23
2023-05-11T07:36:00.260Z,3.07
2023-05-11T07:37:03.021Z,3.40
2023-05-11T07:38:07.744Z,3.27
2023-05-11T07:39:10.775Z,3.17
2023-05-11T07:40:12.748Z,3.27
2023-05-11T07:41:15.562Z,3.17
2023-05-11T07:42:17.354Z,3.17
2023-05-11T07:43:20.076Z,3.67
2023-05-11T07:44:22.831Z,3.30
2023-05-11T07:45:25.975Z,3.20
2023-05-11T07:46:28.839Z,3.03
2023-05-11T07:47:30.652Z,3.80
2023-05-11T07:48:33.396Z,3.27
2023-05-11T07:49:43.573Z,3.50
2023-05-11T07:50:47.020Z,2.80
2023-05-11T07:51:50.432Z,2.90
2023-05-11T07:52:52.254Z,3.23
2023-05-11T07:53:55.021Z,3.10
2023-05-11T07:54:57.817Z,2.93
2023-05-11T07:56:00.651Z,3.47
2023-05-11T07:57:04.153Z,3.10
2023-05-11T07:58:05.964Z,3.37
2023-05-11T07:59:08.698Z,2.90
2023-05-11T08:00:11.744Z,3.40
2023-05-11T08:01:18.465Z,3.20
2023-05-11T08:02:20.271Z,2.70
2023-05-11T08:03:23.190Z,2.97
2023-05-11T08:04:27.156Z,3.20
2023-05-11T08:05:33.007Z,3.20
2023-05-11T08:06:35.780Z,3.20
2023-05-11T08:07:41.010Z,3.60
2023-05-11T08:08:43.368Z,3.07
2023-05-11T08:09:46.201Z,3.67
2023-05-11T08:10:48.925Z,3.40
2023-05-11T08:11:50.735Z,3.03
2023-05-11T08:12:53.460Z,3.30
2023-05-11T08:13:55.430Z,3.60
2023-05-11T08:14:58.190Z,3.30
2023-05-11T08:16:00.702Z,3.33
2023-05-11T08:17:05.666Z,3.63
2023-05-11T08:18:08.579Z,2.50
2023-05-11T08:19:11.639Z,2.97
2023-05-11T08:20:14.731Z,2.60
2023-05-11T08:21:17.521Z,2.97
2023-05-11T08:22:20.331Z,2.50
2023-05-11T08:23:23.199Z,2.90
2023-05-11T08:24:26.056Z,2.53
2023-05-11T08:25:28.135Z,3.40
2023-05-11T08:26:30.982Z,2.70
2023-05-11T08:27:32.734Z,2.80
2023-05-11T08:28:35.482Z,2.80
2023-05-11T08:29:37.235Z,2.53
2023-05-11T08:30:39.964Z,2.83
2023-05-11T08:31:41.789Z,3.77
2023-05-11T08:32:58.036Z,2.47
2023-05-11T08:34:02.484Z,3.20
2023-05-11T08:35:06.474Z,2.67
2023-05-11T08:36:09.525Z,2.60
2023-05-11T08:37:12.724Z,2.60
2023-05-11T08:38:27.322Z,2.87
2023-05-11T08:39:45.438Z,2.57
2023-05-11T08:40:49.758Z,2.70
2023-05-11T08:41:52.655Z,2.77
2023-05-11T08:42:55.825Z,2.43
2023-05-11T08:43:59.309Z,2.67
2023-05-11T08:45:03.950Z,4.27
2023-05-11T08:46:08.287Z,2.70
2023-05-11T08:47:22.664Z,2.70
2023-05-11T08:48:27.657Z,2.20
2023-05-11T08:49:30.478Z,2.20
2023-05-11T08:50:32.235Z,1.90
2023-05-11T08:51:34.983Z,2.30
2023-05-11T08:52:36.816Z,2.10
2023-05-11T08:53:40.080Z,2.10
2023-05-11T08:54:41.877Z,2.20
2023-05-11T08:55:45.098Z,2.20
2023-05-11T08:56:48.006Z,1.97
2023-05-11T08:57:51.623Z,3.00
2023-05-11T08:58:56.079Z,2.47
2023-05-11T08:59:59.384Z,2.10
2023-05-11T09:01:02.368Z,2.40
2023-05-11T09:02:04.757Z,3.13
2023-05-11T09:03:08.349Z,2.47
2023-05-11T09:04:12.170Z,2.10
2023-05-11T09:05:15.354Z,2.10
2023-05-11T09:06:18.982Z,2.67
2023-05-11T09:07:23.055Z,2.00
2023-05-11T09:08:25.886Z,2.13
2023-05-11T09:09:28.658Z,2.33
2023-05-11T09:10:30.457Z,2.00
2023-05-11T09:11:33.340Z,2.43
2023-05-11T09:12:35.415Z,8.03
2023-05-11T09:13:38.166Z,1.83
2023-05-11T09:14:39.974Z,2.17
2023-05-11T09:15:42.785Z,1.93
2023-05-11T09:16:45.606Z,1.90
2023-05-11T09:17:48.429Z,2.20
2023-05-11T09:18:51.292Z,2.00
2023-05-11T09:20:05.275Z,1.77
2023-05-11T09:21:08.317Z,2.03
2023-05-11T09:22:10.158Z,2.40
2023-05-11T09:23:16.924Z,2.33
2023-05-11T09:24:21.045Z,2.00
2023-05-11T09:25:23.630Z,2.23
2023-05-11T09:26:29.172Z,2.40
2023-05-11T09:27:32.211Z,1.93
2023-05-11T09:28:36.008Z,2.13
2023-05-11T09:29:38.036Z,1.80
2023-05-11T09:30:40.772Z,2.23
2023-05-11T09:31:43.839Z,2.77
2023-05-11T09:32:54.131Z,1.90
2023-05-11T09:34:08.808Z,2.60
2023-05-11T09:35:22.020Z,2.93
2023-05-11T09:36:25.395Z,4.10
2023-05-11T09:37:27.162Z,2.97
2023-05-11T09:38:29.906Z,2.17
2023-05-11T09:39:39.545Z,2.07
2023-05-11T09:40:52.312Z,1.70
2023-05-11T09:42:12.420Z,3.47
2023-05-11T09:43:18.933Z,1.90
2023-05-11T09:44:21.646Z,2.60
2023-05-11T09:45:39.509Z,2.00
2023-05-11T09:46:43.786Z,2.13
2023-05-11T09:47:47.605Z,2.33
2023-05-11T09:49:00.271Z,2.50
2023-05-11T09:50:17.036Z,2.13
2023-05-11T09:51:29.602Z,2.20
2023-05-11T09:52:32.364Z,2.10
2023-05-11T09:53:35.805Z,2.50
2023-05-11T09:54:43.831Z,2.00
2023-05-11T09:55:51.990Z,2.03
2023-05-11T09:56:58.155Z,1.80
2023-05-11T09:58:00.191Z,2.93
2023-05-11T09:59:04.119Z,1.80
2023-05-11T10:00:14.506Z,2.33
2023-05-11T10:01:18.465Z,1.90
2023-05-11T10:02:23.692Z,2.93
2023-05-11T10:03:26.642Z,2.20
2023-05-11T10:04:30.875Z,1.70
2023-05-11T10:05:33.968Z,2.27
2023-05-11T10:06:49.481Z,1.90
2023-05-11T10:07:57.982Z,1.90
2023-05-11T10:09:10.031Z,2.00
2023-05-11T10:10:13.642Z,1.93
2023-05-11T10:11:15.620Z,1.90
2023-05-11T10:12:18.746Z,1.80
2023-05-11T10:13:21.192Z,1.87
2023-05-11T10:14:25.130Z,1.93
2023-05-11T10:15:29.114Z,2.13
2023-05-11T10:16:31.722Z,1.90
2023-05-11T10:17:35.265Z,1.90
2023-05-11T10:18:37.476Z,1.57
2023-05-11T10:19:40.321Z,1.70
2023-05-11T10:20:43.477Z,1.53
2023-05-11T10:21:47.880Z,2.03
2023-05-11T10:22:52.423Z,2.10
2023-05-11T10:23:55.486Z,1.60
2023-05-11T10:24:58.689Z,1.90
2023-05-11T10:26:01.769Z,2.67
2023-05-11T10:27:05.266Z,2.23
2023-05-11T10:28:07.167Z,1.53
2023-05-11T10:29:10.833Z,2.27
2023-05-11T10:30:13.526Z,2.10
2023-05-11T10:31:18.468Z,1.70
2023-05-11T10:32:21.262Z,1.80
2023-05-11T10:33:24.950Z,1.97
2023-05-11T10:34:29.673Z,1.97
2023-05-11T10:35:33.003Z,2.13
2023-05-11T10:36:36.080Z,1.90
2023-05-11T10:37:41.779Z,2.33
2023-05-11T10:38:43.716Z,2.00
2023-05-11T10:39:49.862Z,7.33
2023-05-11T10:40:52.984Z,2.00
2023-05-11T10:42:04.114Z,1.90
2023-05-11T10:43:20.510Z,2.37
2023-05-11T10:44:40.514Z,1.77
2023-05-11T10:45:51.161Z,2.00
2023-05-11T10:47:13.837Z,2.43
2023-05-11T10:48:32.669Z,1.70
2023-05-11T10:49:50.961Z,1.83
2023-05-11T10:51:01.236Z,1.80
2023-05-11T10:52:28.223Z,2.07
2023-05-11T10:53:41.650Z,2.47
2023-05-11T10:54:55.427Z,1.90
2023-05-11T10:56:06.307Z,2.53
2023-05-11T10:57:15.057Z,1.87
2023-05-11T10:58:23.182Z,2.10
2023-05-11T10:59:51.887Z,2.23
2023-05-11T11:01:21.777Z,2.10
2023-05-11T11:02:24.239Z,2.20
2023-05-11T11:03:27.191Z,1.90
2023-05-11T11:04:43.395Z,1.90
2023-05-11T11:05:46.332Z,1.97
2023-05-11T11:07:05.550Z,2.17
2023-05-11T11:08:09.458Z,2.03
2023-05-11T11:09:14.542Z,1.53
2023-05-11T11:10:31.379Z,2.03
2023-05-11T11:11:36.790Z,2.00
2023-05-11T11:12:39.669Z,1.90
2023-05-11T11:13:57.094Z,2.33
2023-05-11T11:15:01.137Z,2.07
2023-05-11T11:16:10.110Z,3.20
2023-05-11T11:17:27.435Z,2.50
2023-05-11T11:18:30.262Z,2.20
2023-05-11T11:19:42.506Z,2.37
2023-05-11T11:20:48.728Z,2.53
2023-05-11T11:21:51.704Z,2.10
2023-05-11T11:22:54.574Z,2.20
2023-05-11T11:23:56.656Z,2.10
2023-05-11T11:25:01.133Z,2.23
2023-05-11T11:26:03.087Z,2.17
2023-05-11T11:27:06.133Z,2.30
2023-05-11T11:28:09.320Z,2.03
2023-05-11T11:29:15.333Z,2.17
2023-05-11T11:30:19.228Z,2.10
2023-05-11T11:31:25.937Z,2.20
2023-05-11T11:32:29.384Z,2.60
2023-05-11T11:33:33.601Z,2.30
2023-05-11T11:34:37.463Z,2.27
2023-05-11T11:35:46.180Z,2.10
2023-05-11T11:37:04.848Z,2.13
2023-05-11T11:38:08.229Z,2.27
2023-05-11T11:39:10.249Z,2.90
2023-05-11T11:40:16.727Z,2.30
2023-05-11T11:41:29.281Z,2.33
2023-05-11T11:42:37.686Z,2.27
2023-05-11T11:43:45.658Z,2.50
2023-05-11T11:44:48.380Z,2.50
2023-05-11T11:45:52.755Z,1.97
2023-05-11T11:47:13.378Z,2.20
2023-05-11T11:48:16.652Z,2.17
2023-05-11T11:49:29.530Z,2.37
2023-05-11T11:50:31.384Z,2.63
2023-05-11T11:51:34.487Z,2.40
2023-05-11T11:52:36.368Z,2.77
2023-05-11T11:54:06.630Z,2.70
2023-05-11T11:55:09.383Z,2.03
2023-05-11T11:56:40.605Z,2.37
2023-05-11T11:57:46.629Z,2.63
2023-05-11T11:58:58.315Z,2.47
2023-05-11T12:00:01.488Z,2.20
2023-05-11T12:01:04.097Z,2.20
2023-05-11T12:02:07.011Z,2.13
2023-05-11T12:03:10.419Z,1.93
2023-05-11T12:04:41.928Z,2.20
2023-05-11T12:05:45.692Z,2.40
2023-05-11T12:06:56.303Z,2.53
2023-05-11T12:08:01.104Z,2.30
2023-05-11T12:09:03.503Z,2.40
2023-05-11T12:10:06.943Z,2.53
2023-05-11T12:11:08.891Z,3.77
2023-05-11T12:12:13.186Z,3.63
2023-05-11T12:13:22.075Z,2.70
2023-05-11T12:14:23.976Z,2.37
2023-05-11T12:15:27.892Z,2.27
2023-05-11T12:16:30.679Z,2.30
2023-05-11T12:17:34.663Z,2.37
2023-05-11T12:18:36.572Z,2.13
2023-05-11T12:19:39.379Z,2.40
2023-05-11T12:20:42.127Z,2.40
2023-05-11T12:21:45.103Z,2.30
2023-05-11T12:22:49.060Z,2.20
2023-05-11T12:23:52.867Z,2.40
2023-05-11T12:25:00.430Z,2.97
2023-05-11T12:26:02.794Z,2.70
2023-05-11T12:27:09.484Z,2.03
2023-05-11T12:28:13.630Z,1.93
2023-05-11T12:29:15.855Z,2.10
2023-05-11T12:30:22.869Z,2.13
2023-05-11T12:31:24.780Z,2.53
2023-05-11T12:32:29.060Z,2.43
2023-05-11T12:33:31.937Z,2.30
2023-05-11T12:34:34.660Z,2.20
2023-05-11T12:35:38.877Z,1.80
2023-05-11T12:36:41.880Z,2.03
2023-05-11T12:37:44.874Z,2.20
2023-05-11T12:38:47.590Z,2.57
2023-05-11T12:39:54.979Z,2.47
2023-05-11T12:40:56.776Z,2.20
2023-05-11T12:41:59.554Z,3.33
2023-05-11T12:43:01.358Z,2.27
2023-05-11T12:44:05.800Z,2.67
2023-05-11T12:45:09.808Z,2.63
2023-05-11T12:46:12.165Z,3.40
2023-05-11T12:47:15.607Z,2.13
2023-05-11T12:48:17.811Z,2.60
2023-05-11T12:50:26.335Z,2.30
2023-05-11T12:51:52.504Z,1.90
2023-05-11T12:52:55.274Z,2.67
2023-05-11T12:53:57.144Z,1.97
2023-05-11T12:55:01.074Z,2.00
2023-05-11T12:56:04.254Z,2.10
2023-05-11T12:57:08.058Z,2.20
2023-05-11T12:58:11.879Z,2.30
2023-05-11T12:59:34.782Z,2.20
2023-05-11T13:00:37.836Z,1.80
2023-05-11T13:01:40.624Z,2.20
2023-05-11T13:02:50.768Z,2.10
2023-05-11T13:03:53.688Z,2.00
2023-05-11T13:04:56.506Z,2.30
2023-05-11T13:06:05.537Z,2.20
2023-05-11T13:07:08.477Z,2.00
2023-05-11T13:08:14.626Z,2.00
2023-05-11T13:09:22.184Z,2.40
2023-05-11T13:10:25.437Z,5.30
2023-05-11T13:11:27.290Z,2.20
2023-05-11T13:12:32.272Z,2.70
2023-05-11T13:13:34.408Z,3.33
2023-05-11T13:14:38.738Z,2.30
2023-05-11T13:15:51.762Z,3.03
2023-05-11T13:16:54.181Z,2.13
2023-05-11T13:17:58.905Z,1.97
2023-05-11T13:19:01.898Z,2.30
2023-05-11T13:20:27.462Z,2.00
2023-05-11T13:21:29.730Z,2.47
2023-05-11T13:22:32.640Z,1.90
2023-05-11T13:23:36.832Z,2.00
2023-05-11T13:24:39.900Z,1.90
2023-05-11T13:25:53.032Z,1.87
2023-05-11T13:26:57.325Z,1.90
2023-05-11T13:28:01.471Z,2.20
2023-05-11T13:29:10.855Z,2.10
2023-05-11T13:30:18.529Z,1.70
2023-05-11T13:31:20.437Z,2.33
2023-05-11T13:32:23.342Z,2.10
2023-05-11T13:33:25.397Z,1.90
2023-05-11T13:34:28.124Z,2.00
2023-05-11T13:35:29.894Z,1.80
2023-05-11T13:36:34.343Z,1.97
2023-05-11T13:37:37.233Z,2.00
2023-05-11T13:38:39.676Z,1.70
2023-05-11T13:39:42.425Z,1.80
2023-05-11T13:40:44.219Z,2.50
2023-05-11T13:41:47.322Z,1.90
2023-05-11T13:42:50.078Z,2.27
2023-05-11T13:43:51.897Z,1.53
2023-05-11T13:44:54.690Z,2.00
2023-05-11T13:45:58.744Z,2.47
2023-05-11T13:47:01.566Z,2.10
2023-05-11T13:48:04.980Z,1.73
2023-05-11T13:49:07.002Z,1.70
2023-05-11T13:50:10.338Z,2.00
2023-05-11T13:51:12.126Z,2.20
2023-05-11T13:52:15.194Z,1.73
2023-05-11T13:53:16.943Z,1.83
2023-05-11T13:54:20.370Z,2.27
2023-05-11T13:55:22.307Z,2.53
2023-05-11T13:56:25.987Z,2.33
2023-05-11T13:57:28.752Z,1.90
2023-05-11T13:58:30.578Z,1.90
2023-05-11T13:59:33.291Z,2.30
2023-05-11T14:00:35.332Z,2.00
2023-05-11T14:01:39.579Z,1.90
2023-05-11T14:02:42.475Z,2.67
2023-05-11T14:03:44.393Z,2.00
2023-05-11T14:04:47.217Z,1.70
2023-05-11T14:05:49.156Z,1.83
2023-05-11T14:06:51.930Z,2.20
2023-05-11T14:07:53.768Z,2.00
2023-05-11T14:08:56.581Z,1.70
2023-05-11T14:09:59.386Z,2.40
2023-05-11T14:11:01.487Z,2.20
2023-05-11T14:12:04.665Z,1.87
2023-05-11T14:13:06.652Z,1.90
2023-05-11T14:14:09.426Z,1.80
2023-05-11T14:15:11.585Z,1.87
2023-05-11T14:16:14.798Z,1.70
2023-05-11T14:17:17.970Z,1.70
2023-05-11T14:18:20.980Z,1.77
2023-05-11T14:19:23.882Z,1.83
2023-05-11T14:20:25.777Z,1.80
2023-05-11T14:21:29.080Z,2.00
2023-05-11T14:22:31.075Z,2.40
2023-05-11T14:23:34.490Z,1.70
2023-05-11T14:24:37.564Z,1.97
2023-05-11T14:25:39.560Z,2.70
2023-05-11T14:26:42.471Z,1.80
2023-05-11T14:27:44.282Z,1.60
2023-05-11T14:28:47.485Z,2.10
2023-05-11T14:29:51.442Z,2.63
2023-05-11T14:30:54.216Z,2.00
2023-05-11T14:31:56.339Z,1.80
2023-05-11T14:33:01.332Z,1.50
2023-05-11T14:34:03.428Z,1.73
2023-05-11T14:35:06.948Z,1.90
2023-05-11T14:36:09.637Z,1.87
2023-05-11T14:37:13.132Z,1.73
2023-05-11T14:38:15.763Z,1.70
2023-05-11T14:39:18.608Z,1.80
2023-05-11T14:40:21.466Z,1.67
2023-05-11T14:41:24.286Z,2.87
2023-05-11T14:42:26.258Z,1.70
2023-05-11T14:43:29.160Z,2.03
2023-05-11T14:44:31.746Z,2.00
2023-05-11T14:45:34.853Z,2.30
2023-05-11T14:46:37.657Z,1.77
2023-05-11T14:47:40.275Z,1.70
2023-05-11T14:48:44.457Z,1.70
2023-05-11T14:49:46.316Z,1.50
2023-05-11T14:50:49.102Z,1.87
2023-05-11T14:51:51.959Z,1.80
2023-05-11T14:52:53.812Z,1.90
2023-05-11T14:53:56.580Z,2.00
2023-05-11T14:54:58.451Z,1.90
2023-05-11T14:56:01.410Z,1.60
2023-05-11T14:57:04.200Z,1.60
2023-05-11T14:58:09.240Z,1.70
2023-05-11T14:59:11.021Z,1.67
2023-05-11T15:00:14.931Z,2.00
2023-05-11T15:01:16.801Z,1.93
2023-05-11T15:02:19.643Z,2.63
2023-05-11T15:03:21.525Z,1.90
2023-05-11T15:04:26.020Z,1.80
2023-05-11T15:05:27.819Z,1.70
2023-05-11T15:06:30.634Z,1.93
2023-05-11T15:07:32.486Z,3.30
2023-05-11T15:08:35.219Z,1.83
2023-05-11T15:09:36.980Z,2.30
2023-05-11T15:10:40.475Z,2.63
2023-05-11T15:11:42.266Z,1.87
2023-05-11T15:12:45.011Z,2.20
2023-05-11T15:13:47.572Z,2.00
2023-05-11T15:14:50.551Z,2.10
2023-05-11T15:15:52.483Z,1.77
2023-05-11T15:16:58.875Z,1.90
2023-05-11T15:18:00.981Z,2.03
2023-05-11T15:19:05.354Z,1.70
2023-05-11T15:20:10.123Z,1.90
2023-05-11T15:21:12.887Z,1.90
2023-05-11T15:22:14.660Z,1.60
2023-05-11T15:23:17.806Z,1.70
2023-05-11T15:24:19.573Z,1.90
2023-05-11T15:25:22.562Z,2.07
2023-05-11T15:26:25.045Z,2.30
2023-05-11T15:27:27.889Z,2.43
2023-05-11T15:28:29.701Z,2.20
2023-05-11T15:29:32.684Z,2.10
2023-05-11T15:30:35.966Z,1.80
2023-05-11T15:31:37.868Z,1.70
2023-05-11T15:32:40.886Z,2.10
2023-05-11T15:33:43.004Z,2.00
2023-05-11T15:34:58.425Z,2.50
2023-05-11T15:36:03.780Z,2.03
2023-05-11T15:37:06.213Z,2.00
2023-05-11T15:38:09.050Z,1.90
2023-05-11T15:39:10.987Z,2.00
2023-05-11T15:40:14.317Z,1.80
2023-05-11T15:41:16.710Z,1.80
2023-05-11T15:42:19.577Z,1.93
2023-05-11T15:43:22.366Z,2.17
2023-05-11T15:44:24.263Z,2.50
2023-05-11T15:45:27.228Z,2.50
2023-05-11T15:46:29.059Z,2.87
2023-05-11T15:47:31.910Z,2.37
2023-05-11T15:48:33.803Z,1.93
2023-05-11T15:49:36.576Z,2.53
2023-05-11T15:50:38.494Z,2.20
2023-05-11T15:51:42.663Z,2.00
2023-05-11T15:52:44.477Z,2.03
2023-05-11T15:53:47.297Z,2.03
2023-05-11T15:54:50.128Z,2.30
2023-05-11T15:55:55.109Z,3.07